Bellbrook, Ohio
Current Conditions -  °F | °C
As of 4:53 PM on Friday 28 Nov 2014 (Local Time) from KMGY Reporting Station
Clear Clear  
Wind Chill: 24°   Ceiling: Unl
Heat Index: 32°   Visibility: 10mi
Dew Point: 18°   Wind: 9mph
Humidity: 56%   Direction: 160°SSE
Pressure: 30.19"   Gusts: NA
Location:  39.64°N, 84.07°W
Report Text: KMGY 282153Z AUTO 16008KT 10SM CLR 00/M08 A3019 RMK AO2 SLP233 T00001078
Loading
Personal Weather Stations






























Interactive Weather Map New forecast layout! Learn more

10-Day Weather Forecast

Advertisements
Track Severe Weather on mobile